createdAt,value
2022-12-28T00:00:19.906Z,20.70
2022-12-28T00:02:49.321Z,20.70
2022-12-28T00:05:18.749Z,20.60
2022-12-28T00:07:47.982Z,20.60
2022-12-28T00:10:17.319Z,20.60
2022-12-28T00:13:08.002Z,20.60
2022-12-28T00:15:39.453Z,20.60
2022-12-28T00:18:08.681Z,20.60
2022-12-28T00:20:37.870Z,20.60
2022-12-28T00:23:07.490Z,20.60
2022-12-28T00:25:36.890Z,20.50
2022-12-28T00:28:07.960Z,20.50
2022-12-28T00:30:37.191Z,20.50
2022-12-28T00:33:06.354Z,20.50
2022-12-28T00:35:35.553Z,20.50
2022-12-28T00:38:04.825Z,20.50
2022-12-28T00:40:36.784Z,20.40
2022-12-28T00:43:07.369Z,20.40
2022-12-28T00:45:36.670Z,20.40
2022-12-28T00:48:06.617Z,20.40
2022-12-28T00:50:35.901Z,20.40
2022-12-28T00:53:05.389Z,20.40
2022-12-28T00:55:34.896Z,20.40
2022-12-28T00:58:04.932Z,20.40
2022-12-28T01:00:37.111Z,20.40
2022-12-28T01:03:07.192Z,20.40
2022-12-28T01:05:39.982Z,20.40
2022-12-28T01:08:10.868Z,20.30
2022-12-28T01:10:41.416Z,20.40
2022-12-28T01:13:10.666Z,20.30
2022-12-28T01:15:41.420Z,20.30
2022-12-28T01:18:10.676Z,20.30
2022-12-28T01:20:42.253Z,20.30
2022-12-28T01:23:11.739Z,20.30
2022-12-28T01:25:40.958Z,20.30
2022-12-28T01:28:10.226Z,20.20
2022-12-28T01:30:41.009Z,20.20
2022-12-28T01:33:10.267Z,20.20
2022-12-28T01:35:39.486Z,20.20
2022-12-28T01:38:08.667Z,20.20
2022-12-28T01:40:39.258Z,20.20
2022-12-28T01:43:13.141Z,20.20
2022-12-28T01:45:47.291Z,20.20
2022-12-28T01:48:22.245Z,20.20
2022-12-28T01:50:52.365Z,20.10
2022-12-28T01:53:23.067Z,20.20
2022-12-28T01:55:52.275Z,20.20
2022-12-28T01:58:25.150Z,20.10
2022-12-28T02:00:56.065Z,20.10
2022-12-28T02:03:28.866Z,20.10
2022-12-28T02:06:01.912Z,20.10
2022-12-28T02:08:39.049Z,20.10
2022-12-28T02:11:09.741Z,20.10
2022-12-28T02:13:39.476Z,20.10
2022-12-28T02:16:12.542Z,20.00
2022-12-28T02:18:46.473Z,20.10
2022-12-28T02:21:25.341Z,20.00
2022-12-28T02:24:24.542Z,20.00
2022-12-28T02:26:59.015Z,20.00
2022-12-28T02:29:53.044Z,20.00
2022-12-28T02:32:32.478Z,20.00
2022-12-28T02:35:08.535Z,20.00
2022-12-28T02:37:43.627Z,19.90
2022-12-28T02:40:17.676Z,20.00
2022-12-28T02:42:47.726Z,20.00
2022-12-28T02:45:55.176Z,20.00
2022-12-28T02:48:42.128Z,20.00
2022-12-28T02:51:38.996Z,19.90
2022-12-28T02:54:55.330Z,19.90
2022-12-28T02:57:39.152Z,19.90
2022-12-28T03:00:11.263Z,19.90
2022-12-28T03:02:57.439Z,19.90
2022-12-28T03:05:52.784Z,19.90
2022-12-28T03:08:35.651Z,19.90
2022-12-28T03:11:09.730Z,19.80
2022-12-28T03:13:50.264Z,19.80
2022-12-28T03:16:23.604Z,19.80
2022-12-28T03:19:16.440Z,19.80
2022-12-28T03:22:05.897Z,19.80
2022-12-28T03:24:55.889Z,19.80
2022-12-28T03:27:48.225Z,19.80
2022-12-28T03:30:39.958Z,19.70
2022-12-28T03:33:12.953Z,19.70
2022-12-28T03:35:50.321Z,19.70
2022-12-28T03:38:27.669Z,19.70
2022-12-28T03:41:03.878Z,19.70
2022-12-28T03:43:42.052Z,19.70
2022-12-28T03:46:20.873Z,19.70
2022-12-28T03:48:52.640Z,19.70
2022-12-28T03:51:25.214Z,19.70
2022-12-28T03:53:56.703Z,19.70
2022-12-28T03:56:28.103Z,19.70
2022-12-28T03:58:59.944Z,19.70
2022-12-28T04:01:37.763Z,19.70
2022-12-28T04:04:07.127Z,19.70
2022-12-28T04:06:37.962Z,19.60
2022-12-28T04:09:07.903Z,19.70
2022-12-28T04:11:41.227Z,19.60
2022-12-28T04:14:16.019Z,19.60
2022-12-28T04:16:46.328Z,19.60
2022-12-28T04:19:18.440Z,19.60
2022-12-28T04:21:49.806Z,19.60
2022-12-28T04:24:19.164Z,19.60
2022-12-28T04:26:48.546Z,19.60
2022-12-28T04:29:17.845Z,19.60
2022-12-28T04:31:51.400Z,19.60
2022-12-28T04:34:22.621Z,19.60
2022-12-28T04:37:08.998Z,19.60
2022-12-28T04:39:56.138Z,19.60
2022-12-28T04:42:27.333Z,19.50
2022-12-28T04:44:56.575Z,19.50
2022-12-28T04:47:25.828Z,19.50
2022-12-28T04:49:55.181Z,19.50
2022-12-28T04:52:25.854Z,19.50
2022-12-28T04:54:55.102Z,19.50
2022-12-28T04:57:24.307Z,19.50
2022-12-28T04:59:53.616Z,19.50
2022-12-28T05:02:22.967Z,19.50
2022-12-28T05:04:52.229Z,19.50
2022-12-28T05:07:21.458Z,19.50
2022-12-28T05:09:52.151Z,19.50
2022-12-28T05:12:21.884Z,19.40
2022-12-28T05:14:51.091Z,19.40
2022-12-28T05:17:20.273Z,19.40
2022-12-28T05:19:49.381Z,19.40
2022-12-28T05:22:18.638Z,19.40
2022-12-28T05:24:47.819Z,19.40
2022-12-28T05:27:18.410Z,19.40
2022-12-28T05:29:47.638Z,19.40
2022-12-28T05:32:16.973Z,19.40
2022-12-28T05:34:46.308Z,19.40
2022-12-28T05:37:20.215Z,19.40
2022-12-28T05:39:51.430Z,19.40
2022-12-28T05:42:22.154Z,19.30
2022-12-28T05:44:51.494Z,19.30
2022-12-28T05:47:20.895Z,19.30
2022-12-28T05:49:50.035Z,19.30
2022-12-28T05:52:19.238Z,19.30
2022-12-28T05:54:48.834Z,19.30
2022-12-28T05:57:18.477Z,19.30
2022-12-28T05:59:49.736Z,19.30
2022-12-28T06:02:24.374Z,19.30
2022-12-28T06:04:54.458Z,19.30
2022-12-28T06:07:24.246Z,19.30
2022-12-28T06:09:54.621Z,19.30
2022-12-28T06:12:23.839Z,19.30
2022-12-28T06:17:37.626Z,19.30
2022-12-28T06:20:08.207Z,19.30
2022-12-28T06:22:38.855Z,19.30
2022-12-28T06:25:08.858Z,19.30
2022-12-28T06:27:38.209Z,19.30
2022-12-28T06:30:12.009Z,19.30
2022-12-28T06:32:41.572Z,19.30
2022-12-28T06:35:11.121Z,19.30
2022-12-28T06:37:40.706Z,19.30
2022-12-28T06:40:10.826Z,19.30
2022-12-28T06:42:40.130Z,19.30
2022-12-28T06:45:53.876Z,19.30
2022-12-28T06:48:24.950Z,19.30
2022-12-28T06:50:58.597Z,19.30
2022-12-28T06:56:18.273Z,19.30
2022-12-28T06:58:49.161Z,19.30
2022-12-28T07:01:20.602Z,19.30
2022-12-28T07:03:53.704Z,19.20
2022-12-28T07:06:25.126Z,19.20
2022-12-28T07:09:08.558Z,19.10
2022-12-28T07:11:38.690Z,19.10
2022-12-28T07:14:08.461Z,19.10
2022-12-28T07:19:07.329Z,19.10
2022-12-28T07:21:38.939Z,19.10
2022-12-28T07:24:09.846Z,19.10
2022-12-28T07:26:40.360Z,19.20
2022-12-28T07:29:10.207Z,19.30
2022-12-28T07:31:45.955Z,19.50
2022-12-28T07:34:18.046Z,19.60
2022-12-28T07:36:47.333Z,19.70
2022-12-28T07:39:17.223Z,19.80
2022-12-28T07:41:46.914Z,19.90
2022-12-28T07:44:20.108Z,19.90
2022-12-28T07:46:50.050Z,20.00
2022-12-28T07:49:20.798Z,20.10
2022-12-28T07:51:50.391Z,20.10
2022-12-28T07:54:19.996Z,20.20
2022-12-28T07:56:49.673Z,20.20
2022-12-28T07:59:19.545Z,20.20
2022-12-28T08:01:52.896Z,20.20
2022-12-28T08:04:24.703Z,20.30
2022-12-28T08:06:54.238Z,20.30
2022-12-28T08:09:23.482Z,20.30
2022-12-28T08:11:53.459Z,20.30
2022-12-28T08:14:23.675Z,20.30
2022-12-28T08:16:53.085Z,20.30
2022-12-28T08:19:25.112Z,20.30
2022-12-28T08:21:54.775Z,20.30
2022-12-28T08:24:24.287Z,20.40
2022-12-28T08:26:53.784Z,20.40
2022-12-28T08:29:24.353Z,20.40
2022-12-28T08:31:54.181Z,20.40
2022-12-28T08:34:27.465Z,20.40
2022-12-28T08:36:57.824Z,20.40
2022-12-28T08:39:27.103Z,20.40
2022-12-28T08:41:57.449Z,20.50
2022-12-28T08:44:26.704Z,20.40
2022-12-28T08:46:58.359Z,20.40
2022-12-28T08:49:29.058Z,20.40
2022-12-28T08:51:58.555Z,20.50
2022-12-28T08:54:28.023Z,20.50
2022-12-28T08:56:57.391Z,20.50
2022-12-28T08:59:26.655Z,20.50
2022-12-28T09:01:56.151Z,20.60
2022-12-28T09:04:25.420Z,20.60
2022-12-28T09:06:56.099Z,20.60
2022-12-28T09:09:25.455Z,20.60
2022-12-28T09:11:54.801Z,20.60
2022-12-28T09:14:24.821Z,20.60
2022-12-28T09:16:54.661Z,20.60
2022-12-28T09:19:24.620Z,20.60
2022-12-28T09:21:55.567Z,20.60
2022-12-28T09:24:25.165Z,20.60
2022-12-28T09:26:55.635Z,20.60
2022-12-28T09:29:24.948Z,20.70
2022-12-28T09:31:54.236Z,20.70
2022-12-28T09:34:35.448Z,20.70
2022-12-28T09:37:08.693Z,20.70
2022-12-28T09:39:38.164Z,20.70
2022-12-28T09:42:14.616Z,20.70
2022-12-28T09:44:51.096Z,20.70
2022-12-28T09:47:27.344Z,20.70
2022-12-28T09:50:35.720Z,20.70
2022-12-28T09:53:22.955Z,20.80
2022-12-28T09:56:01.308Z,20.80
2022-12-28T09:58:33.204Z,20.80
2022-12-28T10:01:04.426Z,20.80
2022-12-28T10:03:38.615Z,20.90
2022-12-28T10:06:13.077Z,20.90
2022-12-28T10:08:48.020Z,20.90
2022-12-28T10:11:20.332Z,21.00
2022-12-28T10:13:55.966Z,21.00
2022-12-28T10:16:28.007Z,21.00
2022-12-28T10:18:57.874Z,21.10
2022-12-28T10:21:33.220Z,21.10
2022-12-28T10:26:59.742Z,21.20
2022-12-28T10:29:29.490Z,21.20
2022-12-28T10:32:02.239Z,21.20
2022-12-28T10:34:34.320Z,21.20
2022-12-28T10:37:15.825Z,21.20
2022-12-28T10:39:59.001Z,21.20
2022-12-28T10:42:31.411Z,21.20
2022-12-28T10:45:06.333Z,21.20
2022-12-28T10:47:42.681Z,21.20
2022-12-28T10:50:45.181Z,21.20
2022-12-28T10:53:33.377Z,21.30
2022-12-28T10:56:08.008Z,21.30
2022-12-28T10:58:37.550Z,21.30
2022-12-28T11:01:17.961Z,21.20
2022-12-28T11:03:59.819Z,21.20
2022-12-28T11:06:31.129Z,21.10
2022-12-28T11:09:08.042Z,21.00
2022-12-28T11:11:39.060Z,21.00
2022-12-28T11:14:15.567Z,20.90
2022-12-28T11:16:45.565Z,20.90
2022-12-28T11:19:14.966Z,20.90
2022-12-28T11:21:45.228Z,20.80
2022-12-28T11:24:15.941Z,20.80
2022-12-28T11:26:49.376Z,20.80
2022-12-28T11:29:20.417Z,20.70
2022-12-28T11:31:56.274Z,20.70
2022-12-28T11:34:28.893Z,20.60
2022-12-28T11:36:58.702Z,20.60
2022-12-28T11:39:47.172Z,20.60
2022-12-28T11:42:56.612Z,20.60
2022-12-28T11:45:51.972Z,20.60
2022-12-28T11:48:40.897Z,20.60
2022-12-28T11:51:17.254Z,20.60
2022-12-28T11:53:57.538Z,20.60
2022-12-28T11:56:28.546Z,20.60
2022-12-28T11:59:23.331Z,20.60
2022-12-28T12:01:58.267Z,20.60
2022-12-28T12:04:40.619Z,20.50
2022-12-28T12:07:21.529Z,20.50
2022-12-28T12:10:22.613Z,20.50
2022-12-28T12:12:54.144Z,20.50
2022-12-28T12:15:32.410Z,20.40
2022-12-28T12:18:04.781Z,20.40
2022-12-28T12:20:54.943Z,20.40
2022-12-28T12:23:33.982Z,20.40
2022-12-28T12:26:22.348Z,20.40
2022-12-28T12:28:54.193Z,20.40
2022-12-28T12:31:31.361Z,20.30
2022-12-28T12:34:07.774Z,20.30
2022-12-28T12:37:08.919Z,20.30
2022-12-28T12:39:55.160Z,20.30
2022-12-28T12:42:32.488Z,20.30
2022-12-28T12:45:12.658Z,20.30
2022-12-28T12:48:03.652Z,20.30
2022-12-28T12:50:55.309Z,20.30
2022-12-28T12:53:37.066Z,20.20
2022-12-28T12:56:23.403Z,20.20
2022-12-28T12:59:17.042Z,20.20
2022-12-28T13:01:55.175Z,20.20
2022-12-28T13:04:29.591Z,20.20
2022-12-28T13:07:01.775Z,20.20
2022-12-28T13:09:34.689Z,20.20
2022-12-28T13:12:04.805Z,20.20
2022-12-28T13:14:34.767Z,20.20
2022-12-28T13:17:04.275Z,20.20
2022-12-28T13:19:35.733Z,20.20
2022-12-28T13:22:05.891Z,20.20
2022-12-28T13:24:39.246Z,20.20
2022-12-28T13:27:22.379Z,20.20
2022-12-28T13:29:54.511Z,20.20
2022-12-28T13:32:34.326Z,20.20
2022-12-28T13:35:58.266Z,20.20
2022-12-28T13:38:38.998Z,20.20
2022-12-28T13:41:19.754Z,20.10
2022-12-28T13:44:23.631Z,20.10
2022-12-28T13:46:58.038Z,20.20
2022-12-28T13:49:29.803Z,20.10
2022-12-28T13:52:01.013Z,20.20
2022-12-28T13:54:33.004Z,20.10
2022-12-28T13:57:36.614Z,20.20
2022-12-28T13:59:56.619Z,20.20
2022-12-28T14:02:29.013Z,20.10
2022-12-28T14:05:00.376Z,20.20
2022-12-28T14:07:32.299Z,20.10
2022-12-28T14:10:02.683Z,20.10
2022-12-28T14:12:33.511Z,20.20
2022-12-28T14:15:03.526Z,20.10
2022-12-28T14:17:33.759Z,20.20
2022-12-28T14:20:03.788Z,20.10
2022-12-28T14:22:37.162Z,20.20
2022-12-28T14:25:08.946Z,20.10
2022-12-28T14:27:42.148Z,20.20
2022-12-28T14:30:24.714Z,20.20
2022-12-28T14:32:55.374Z,20.20
2022-12-28T14:35:26.887Z,20.20
2022-12-28T14:38:00.473Z,20.10
2022-12-28T14:40:34.042Z,20.20
2022-12-28T14:43:10.748Z,20.20
2022-12-28T14:46:04.848Z,20.20
2022-12-28T14:48:38.387Z,20.20
2022-12-28T14:51:26.003Z,20.20
2022-12-28T14:54:18.684Z,20.20
2022-12-28T14:56:53.158Z,20.20
2022-12-28T14:59:27.828Z,20.20
2022-12-28T15:01:57.620Z,20.20
2022-12-28T15:04:41.010Z,20.20
2022-12-28T15:07:12.130Z,20.20
2022-12-28T15:09:42.947Z,20.20
2022-12-28T15:12:15.510Z,20.20
2022-12-28T15:14:45.898Z,20.20
2022-12-28T15:17:15.708Z,20.20
2022-12-28T15:19:46.282Z,20.30
2022-12-28T15:22:15.684Z,20.30
2022-12-28T15:24:49.219Z,20.30
2022-12-28T15:27:18.578Z,20.30
2022-12-28T15:30:04.972Z,20.30
2022-12-28T15:32:35.280Z,20.30
2022-12-28T15:35:04.788Z,20.30
2022-12-28T15:37:34.384Z,20.30
2022-12-28T15:40:06.039Z,20.30
2022-12-28T15:42:40.281Z,20.30
2022-12-28T15:45:10.940Z,20.30
2022-12-28T15:47:40.301Z,20.30
2022-12-28T15:50:10.688Z,20.30
2022-12-28T15:52:40.667Z,20.30
2022-12-28T15:55:11.859Z,20.30
2022-12-28T15:57:41.185Z,20.30
2022-12-28T16:00:13.013Z,20.30
2022-12-28T16:02:42.661Z,20.30
2022-12-28T16:05:12.318Z,20.30
2022-12-28T16:07:41.592Z,20.30
2022-12-28T16:10:12.740Z,20.30
2022-12-28T16:12:43.397Z,20.40
2022-12-28T16:15:13.033Z,20.40
2022-12-28T16:17:52.874Z,20.40
2022-12-28T16:20:24.639Z,20.40
2022-12-28T16:22:54.761Z,20.40
2022-12-28T16:25:25.467Z,20.50
2022-12-28T16:27:55.378Z,20.50
2022-12-28T16:30:24.860Z,20.50
2022-12-28T16:32:54.177Z,20.50
2022-12-28T16:35:23.486Z,20.50
2022-12-28T16:37:53.694Z,20.50
2022-12-28T16:40:24.471Z,20.50
2022-12-28T16:42:53.741Z,20.50
2022-12-28T16:45:23.068Z,20.50
2022-12-28T16:47:52.335Z,20.50
2022-12-28T16:50:21.980Z,20.50
2022-12-28T16:52:51.300Z,20.50
2022-12-28T16:55:20.754Z,20.60
2022-12-28T16:57:51.960Z,20.60
2022-12-28T17:00:21.852Z,20.60
2022-12-28T17:02:51.863Z,20.60
2022-12-28T17:05:22.140Z,20.60
2022-12-28T17:07:51.394Z,20.60
2022-12-28T17:10:20.971Z,20.60
2022-12-28T17:12:51.666Z,20.60
2022-12-28T17:15:20.892Z,20.70
2022-12-28T17:17:50.437Z,20.70
2022-12-28T17:20:20.146Z,20.70
2022-12-28T17:22:49.417Z,20.70
2022-12-28T17:25:19.202Z,20.70
2022-12-28T17:27:48.477Z,20.70
2022-12-28T17:30:19.525Z,20.70
2022-12-28T17:32:48.777Z,20.80
2022-12-28T17:35:18.317Z,20.80
2022-12-28T17:37:47.805Z,20.80
2022-12-28T17:40:17.239Z,20.80
2022-12-28T17:42:47.209Z,20.80
2022-12-28T17:45:18.897Z,20.80
2022-12-28T17:47:48.451Z,20.80
2022-12-28T17:50:18.283Z,20.80
2022-12-28T17:52:47.766Z,20.80
2022-12-28T17:55:17.206Z,20.80
2022-12-28T17:57:47.097Z,20.80
2022-12-28T18:00:19.331Z,20.80
2022-12-28T18:02:48.753Z,20.80
2022-12-28T18:05:18.597Z,20.80
2022-12-28T18:07:48.249Z,20.80
2022-12-28T18:10:18.063Z,20.80
2022-12-28T18:12:47.425Z,20.80
2022-12-28T18:15:17.187Z,20.80
2022-12-28T18:17:48.563Z,20.90
2022-12-28T18:20:18.486Z,20.90
2022-12-28T18:22:47.939Z,20.90
2022-12-28T18:25:21.935Z,20.90
2022-12-28T18:27:51.481Z,20.90
2022-12-28T18:30:20.883Z,20.90
2022-12-28T18:32:51.597Z,20.90
2022-12-28T18:35:25.102Z,21.00
2022-12-28T18:37:54.967Z,21.00
2022-12-28T18:40:24.565Z,21.00
2022-12-28T18:42:53.850Z,21.00
2022-12-28T18:45:23.543Z,21.00
2022-12-28T18:47:54.159Z,21.00
2022-12-28T18:50:23.458Z,21.00
2022-12-28T18:52:52.710Z,21.10
2022-12-28T18:55:22.238Z,21.10
2022-12-28T18:57:51.416Z,21.10
2022-12-28T19:00:20.893Z,21.10
2022-12-28T19:02:54.147Z,21.10
2022-12-28T19:05:23.566Z,21.10
2022-12-28T19:07:52.716Z,21.10
2022-12-28T19:10:22.034Z,21.10
2022-12-28T19:12:51.312Z,21.10
2022-12-28T19:15:20.576Z,21.10
2022-12-28T19:17:50.008Z,21.10
2022-12-28T19:20:20.605Z,21.10
2022-12-28T19:22:49.898Z,21.10
2022-12-28T19:25:19.094Z,21.10
2022-12-28T19:27:48.352Z,21.10
2022-12-28T19:30:17.786Z,21.10
2022-12-28T19:32:47.289Z,21.10
2022-12-28T19:35:16.880Z,21.10
2022-12-28T19:37:47.651Z,21.10
2022-12-28T19:40:17.108Z,21.10
2022-12-28T19:42:46.330Z,21.10
2022-12-28T19:45:15.808Z,21.10
2022-12-28T19:47:45.124Z,21.10
2022-12-28T19:50:14.777Z,21.10
2022-12-28T19:52:44.074Z,21.10
2022-12-28T19:55:14.786Z,21.10
2022-12-28T19:57:44.310Z,21.00
2022-12-28T20:00:15.151Z,21.00
2022-12-28T20:02:44.540Z,21.00
2022-12-28T20:05:13.877Z,21.00
2022-12-28T20:07:43.136Z,21.00
2022-12-28T20:10:15.058Z,21.00
2022-12-28T20:12:44.342Z,21.00
2022-12-28T20:15:13.637Z,21.00
2022-12-28T20:17:46.836Z,21.00
2022-12-28T20:20:17.692Z,21.00
2022-12-28T20:22:48.097Z,21.00
2022-12-28T20:25:18.885Z,21.00
2022-12-28T20:27:48.361Z,20.90
2022-12-28T20:30:17.776Z,21.00
2022-12-28T20:32:46.938Z,21.00
2022-12-28T20:35:16.501Z,21.00
2022-12-28T20:37:45.688Z,20.90
2022-12-28T20:40:14.949Z,21.00
2022-12-28T20:43:03.309Z,21.00
2022-12-28T20:45:35.257Z,21.00
2022-12-28T20:48:04.588Z,21.00
2022-12-28T20:50:33.885Z,21.00
2022-12-28T20:53:03.125Z,21.00
2022-12-28T20:55:32.320Z,21.00
2022-12-28T20:58:03.017Z,20.90
2022-12-28T21:00:32.465Z,21.00
2022-12-28T21:03:01.912Z,21.00
2022-12-28T21:05:31.112Z,21.00
2022-12-28T21:08:00.343Z,21.00
2022-12-28T21:10:29.646Z,21.00
2022-12-28T21:12:59.407Z,21.00
2022-12-28T21:15:30.266Z,20.90
2022-12-28T21:17:59.536Z,20.90
2022-12-28T21:20:33.970Z,20.90
2022-12-28T21:23:06.362Z,20.90
2022-12-28T21:25:35.905Z,20.90
2022-12-28T21:28:05.584Z,20.90
2022-12-28T21:30:36.643Z,20.90
2022-12-28T21:33:06.179Z,20.90
2022-12-28T21:35:35.528Z,20.90
2022-12-28T21:38:06.949Z,20.90
2022-12-28T21:40:36.484Z,20.90
2022-12-28T21:43:11.683Z,20.90
2022-12-28T21:45:50.104Z,20.90
2022-12-28T21:48:19.866Z,20.90
2022-12-28T21:50:49.537Z,20.80
2022-12-28T21:53:19.103Z,20.80
2022-12-28T21:55:48.670Z,20.80
2022-12-28T21:58:18.035Z,20.70
2022-12-28T22:01:07.062Z,20.70
2022-12-28T22:04:04.866Z,20.60
2022-12-28T22:06:35.579Z,20.60
2022-12-28T22:09:24.175Z,20.60
2022-12-28T22:12:11.248Z,20.50
2022-12-28T22:14:42.219Z,20.50
2022-12-28T22:17:14.858Z,20.40
2022-12-28T22:19:44.256Z,20.40
2022-12-28T22:22:15.441Z,20.40
2022-12-28T22:24:46.611Z,20.40
2022-12-28T22:27:15.839Z,20.30
2022-12-28T22:29:45.147Z,20.30
2022-12-28T22:32:15.860Z,20.30
2022-12-28T22:34:45.105Z,20.30
2022-12-28T22:37:15.167Z,20.30
2022-12-28T22:39:44.560Z,20.30
2022-12-28T22:42:15.706Z,20.20
2022-12-28T22:44:46.007Z,20.20
2022-12-28T22:47:16.889Z,20.20
2022-12-28T22:49:46.211Z,20.20
2022-12-28T22:52:15.534Z,20.20
2022-12-28T22:54:47.757Z,20.10
2022-12-28T22:57:17.019Z,20.10
2022-12-28T22:59:46.206Z,20.10
2022-12-28T23:02:16.966Z,20.10
2022-12-28T23:04:46.373Z,20.10
2022-12-28T23:07:15.578Z,20.10
2022-12-28T23:09:44.789Z,20.10
2022-12-28T23:12:14.033Z,20.10
2022-12-28T23:17:30.557Z,20.00
2022-12-28T23:23:03.258Z,20.00
2022-12-28T23:25:50.077Z,20.00
2022-12-28T23:28:19.378Z,20.00
2022-12-28T23:30:50.193Z,19.90
2022-12-28T23:33:21.280Z,20.00
2022-12-28T23:35:50.590Z,19.90
2022-12-28T23:38:19.767Z,19.90
2022-12-28T23:43:37.619Z,19.90
2022-12-28T23:46:07.126Z,19.90
2022-12-28T23:48:37.873Z,19.90
2022-12-28T23:51:09.156Z,19.90
2022-12-28T23:53:38.419Z,19.90
2022-12-28T23:56:08.554Z,19.90
2022-12-28T23:58:37.976Z,19.80
